sensor_id;sensor_type;location;lat;lon;timestamp;P1;durP1;ratioP1;P2;durP2;ratioP2
22357;SDS011;11346;50.150;8.150;2022-11-14T00:01:11;7.13;;;5.10;;
22357;SDS011;11346;50.150;8.150;2022-11-14T00:03:39;8.20;;;5.10;;
22357;SDS011;11346;50.150;8.150;2022-11-14T00:06:06;8.47;;;5.77;;
22357;SDS011;11346;50.150;8.150;2022-11-14T00:08:34;8.40;;;5.50;;
22357;SDS011;11346;50.150;8.150;2022-11-14T00:11:02;9.57;;;5.10;;
22357;SDS011;11346;50.150;8.150;2022-11-14T00:13:29;10.70;;;6.20;;
22357;SDS011;11346;50.150;8.150;2022-11-14T00:15:56;9.57;;;5.90;;
22357;SDS011;11346;50.150;8.150;2022-11-14T00:18:23;11.20;;;6.57;;
22357;SDS011;11346;50.150;8.150;2022-11-14T00:20:50;9.87;;;6.17;;
22357;SDS011;11346;50.150;8.150;2022-11-14T00:23:17;9.67;;;6.27;;
22357;SDS011;11346;50.150;8.150;2022-11-14T00:25:46;7.17;;;3.47;;
22357;SDS011;11346;50.150;8.150;2022-11-14T00:28:13;6.43;;;3.73;;
22357;SDS011;11346;50.150;8.150;2022-11-14T00:30:41;10.23;;;7.00;;
22357;SDS011;11346;50.150;8.150;2022-11-14T00:33:11;11.10;;;5.73;;
22357;SDS011;11346;50.150;8.150;2022-11-14T00:35:38;10.93;;;6.80;;
22357;SDS011;11346;50.150;8.150;2022-11-14T00:38:05;9.17;;;6.53;;
22357;SDS011;11346;50.150;8.150;2022-11-14T00:40:32;10.47;;;7.13;;
22357;SDS011;11346;50.150;8.150;2022-11-14T00:43:01;7.27;;;5.00;;
22357;SDS011;11346;50.150;8.150;2022-11-14T00:45:28;8.57;;;5.53;;
22357;SDS011;11346;50.150;8.150;2022-11-14T00:47:55;11.73;;;7.40;;
22357;SDS011;11346;50.150;8.150;2022-11-14T00:50:22;11.73;;;5.63;;
22357;SDS011;11346;50.150;8.150;2022-11-14T00:52:49;10.30;;;6.70;;
22357;SDS011;11346;50.150;8.150;2022-11-14T00:55:16;12.57;;;7.27;;
22357;SDS011;11346;50.150;8.150;2022-11-14T00:57:43;7.70;;;5.17;;
22357;SDS011;11346;50.150;8.150;2022-11-14T01:00:12;11.23;;;7.40;;
22357;SDS011;11346;50.150;8.150;2022-11-14T01:02:40;10.83;;;7.30;;
22357;SDS011;11346;50.150;8.150;2022-11-14T01:05:07;13.30;;;8.77;;
22357;SDS011;11346;50.150;8.150;2022-11-14T01:07:34;10.23;;;6.40;;
22357;SDS011;11346;50.150;8.150;2022-11-14T01:10:01;11.00;;;7.40;;
22357;SDS011;11346;50.150;8.150;2022-11-14T01:12:28;9.67;;;6.50;;
22357;SDS011;11346;50.150;8.150;2022-11-14T01:14:55;10.33;;;7.20;;
22357;SDS011;11346;50.150;8.150;2022-11-14T01:17:24;8.40;;;3.70;;
22357;SDS011;11346;50.150;8.150;2022-11-14T01:19:52;12.77;;;7.77;;
22357;SDS011;11346;50.150;8.150;2022-11-14T01:22:19;14.67;;;7.73;;
22357;SDS011;11346;50.150;8.150;2022-11-14T01:24:46;11.03;;;7.27;;
22357;SDS011;11346;50.150;8.150;2022-11-14T01:27:13;12.00;;;7.77;;
22357;SDS011;11346;50.150;8.150;2022-11-14T01:29:40;11.10;;;7.30;;
22357;SDS011;11346;50.150;8.150;2022-11-14T01:32:07;11.30;;;6.87;;
22357;SDS011;11346;50.150;8.150;2022-11-14T01:34:36;9.60;;;5.93;;
22357;SDS011;11346;50.150;8.150;2022-11-14T01:37:03;10.57;;;5.73;;
22357;SDS011;11346;50.150;8.150;2022-11-14T01:39:30;11.30;;;6.30;;
22357;SDS011;11346;50.150;8.150;2022-11-14T01:41:57;10.63;;;6.63;;
22357;SDS011;11346;50.150;8.150;2022-11-14T01:47:09;11.37;;;6.57;;
22357;SDS011;11346;50.150;8.150;2022-11-14T01:49:38;13.00;;;8.00;;
22357;SDS011;11346;50.150;8.150;2022-11-14T01:52:07;12.10;;;7.93;;
22357;SDS011;11346;50.150;8.150;2022-11-14T01:54:36;11.77;;;8.00;;
22357;SDS011;11346;50.150;8.150;2022-11-14T01:57:04;11.97;;;8.20;;
22357;SDS011;11346;50.150;8.150;2022-11-14T01:59:33;14.30;;;8.57;;
22357;SDS011;11346;50.150;8.150;2022-11-14T02:02:02;16.43;;;9.93;;
22357;SDS011;11346;50.150;8.150;2022-11-14T02:04:31;17.13;;;9.80;;
22357;SDS011;11346;50.150;8.150;2022-11-14T02:07:01;14.30;;;9.10;;
22357;SDS011;11346;50.150;8.150;2022-11-14T02:09:29;15.53;;;10.03;;
22357;SDS011;11346;50.150;8.150;2022-11-14T02:11:57;15.10;;;10.60;;
22357;SDS011;11346;50.150;8.150;2022-11-14T02:14:25;16.93;;;10.93;;
22357;SDS011;11346;50.150;8.150;2022-11-14T02:16:53;18.83;;;11.87;;
22357;SDS011;11346;50.150;8.150;2022-11-14T02:19:20;16.67;;;11.43;;
22357;SDS011;11346;50.150;8.150;2022-11-14T02:21:48;18.17;;;12.27;;
22357;SDS011;11346;50.150;8.150;2022-11-14T02:24:15;17.67;;;11.87;;
22357;SDS011;11346;50.150;8.150;2022-11-14T02:26:42;16.83;;;11.60;;
22357;SDS011;11346;50.150;8.150;2022-11-14T02:29:09;18.60;;;12.07;;
22357;SDS011;11346;50.150;8.150;2022-11-14T02:31:37;23.03;;;12.13;;
22357;SDS011;11346;50.150;8.150;2022-11-14T02:34:04;17.73;;;11.30;;
22357;SDS011;11346;50.150;8.150;2022-11-14T02:36:31;20.13;;;11.93;;
22357;SDS011;11346;50.150;8.150;2022-11-14T02:38:59;19.87;;;11.70;;
22357;SDS011;11346;50.150;8.150;2022-11-14T02:41:26;16.90;;;11.13;;
22357;SDS011;11346;50.150;8.150;2022-11-14T02:43:53;20.17;;;11.83;;
22357;SDS011;11346;50.150;8.150;2022-11-14T02:46:20;15.83;;;10.20;;
22357;SDS011;11346;50.150;8.150;2022-11-14T02:48:47;17.80;;;10.73;;
22357;SDS011;11346;50.150;8.150;2022-11-14T02:51:14;18.03;;;10.97;;
22357;SDS011;11346;50.150;8.150;2022-11-14T02:53:41;20.10;;;12.30;;
22357;SDS011;11346;50.150;8.150;2022-11-14T02:56:10;17.87;;;11.27;;
22357;SDS011;11346;50.150;8.150;2022-11-14T02:58:37;18.10;;;10.50;;
22357;SDS011;11346;50.150;8.150;2022-11-14T03:01:04;21.23;;;11.90;;
22357;SDS011;11346;50.150;8.150;2022-11-14T03:03:31;21.80;;;11.97;;
22357;SDS011;11346;50.150;8.150;2022-11-14T03:05:58;24.60;;;12.40;;
22357;SDS011;11346;50.150;8.150;2022-11-14T03:08:25;20.50;;;12.43;;
22357;SDS011;11346;50.150;8.150;2022-11-14T03:10:52;20.90;;;12.30;;
22357;SDS011;11346;50.150;8.150;2022-11-14T03:13:21;22.20;;;12.70;;
22357;SDS011;11346;50.150;8.150;2022-11-14T03:15:48;19.30;;;11.57;;
22357;SDS011;11346;50.150;8.150;2022-11-14T03:18:15;23.93;;;12.83;;
22357;SDS011;11346;50.150;8.150;2022-11-14T03:20:42;24.70;;;12.50;;
22357;SDS011;11346;50.150;8.150;2022-11-14T03:23:09;20.83;;;12.60;;
22357;SDS011;11346;50.150;8.150;2022-11-14T03:25:36;19.30;;;11.50;;
22357;SDS011;11346;50.150;8.150;2022-11-14T03:28:03;18.83;;;11.53;;
22357;SDS011;11346;50.150;8.150;2022-11-14T03:30:32;18.57;;;10.87;;
22357;SDS011;11346;50.150;8.150;2022-11-14T03:32:59;19.37;;;11.53;;
22357;SDS011;11346;50.150;8.150;2022-11-14T03:35:26;20.43;;;10.60;;
22357;SDS011;11346;50.150;8.150;2022-11-14T03:37:53;19.67;;;10.80;;
22357;SDS011;11346;50.150;8.150;2022-11-14T03:40:20;18.37;;;9.87;;
22357;SDS011;11346;50.150;8.150;2022-11-14T03:42:47;20.30;;;11.97;;
22357;SDS011;11346;50.150;8.150;2022-11-14T03:45:14;19.43;;;11.33;;
22357;SDS011;11346;50.150;8.150;2022-11-14T03:47:42;19.30;;;11.00;;
22357;SDS011;11346;50.150;8.150;2022-11-14T03:50:09;21.57;;;11.97;;
22357;SDS011;11346;50.150;8.150;2022-11-14T03:52:36;23.43;;;12.20;;
22357;SDS011;11346;50.150;8.150;2022-11-14T03:55:04;18.67;;;11.10;;
22357;SDS011;11346;50.150;8.150;2022-11-14T03:57:31;28.30;;;12.23;;
22357;SDS011;11346;50.150;8.150;2022-11-14T03:59:58;18.90;;;11.40;;
22357;SDS011;11346;50.150;8.150;2022-11-14T04:02:25;18.40;;;11.30;;
22357;SDS011;11346;50.150;8.150;2022-11-14T04:04:53;19.47;;;11.20;;
22357;SDS011;11346;50.150;8.150;2022-11-14T04:07:20;19.40;;;11.30;;
22357;SDS011;11346;50.150;8.150;2022-11-14T04:09:47;21.83;;;11.73;;
22357;SDS011;11346;50.150;8.150;2022-11-14T04:12:15;17.67;;;10.03;;
22357;SDS011;11346;50.150;8.150;2022-11-14T04:14:42;20.90;;;12.00;;
22357;SDS011;11346;50.150;8.150;2022-11-14T04:17:09;19.63;;;11.03;;
22357;SDS011;11346;50.150;8.150;2022-11-14T04:19:37;20.67;;;12.23;;
22357;SDS011;11346;50.150;8.150;2022-11-14T04:22:05;21.43;;;12.27;;
22357;SDS011;11346;50.150;8.150;2022-11-14T04:24:32;20.60;;;11.67;;
22357;SDS011;11346;50.150;8.150;2022-11-14T04:26:59;20.70;;;12.10;;
22357;SDS011;11346;50.150;8.150;2022-11-14T04:29:26;24.90;;;11.87;;
22357;SDS011;11346;50.150;8.150;2022-11-14T04:31:53;21.43;;;11.97;;
22357;SDS011;11346;50.150;8.150;2022-11-14T04:34:20;22.93;;;11.90;;
22357;SDS011;11346;50.150;8.150;2022-11-14T04:36:47;21.27;;;11.50;;
22357;SDS011;11346;50.150;8.150;2022-11-14T04:39:16;20.90;;;11.40;;
22357;SDS011;11346;50.150;8.150;2022-11-14T04:41:43;22.47;;;12.17;;
22357;SDS011;11346;50.150;8.150;2022-11-14T04:44:10;23.40;;;12.40;;
22357;SDS011;11346;50.150;8.150;2022-11-14T04:46:37;22.80;;;12.40;;
22357;SDS011;11346;50.150;8.150;2022-11-14T04:49:04;21.90;;;13.53;;
22357;SDS011;11346;50.150;8.150;2022-11-14T04:51:31;23.93;;;12.70;;
22357;SDS011;11346;50.150;8.150;2022-11-14T04:53:58;23.97;;;12.47;;
22357;SDS011;11346;50.150;8.150;2022-11-14T04:56:27;20.50;;;11.27;;
22357;SDS011;11346;50.150;8.150;2022-11-14T04:58:54;22.27;;;13.30;;
22357;SDS011;11346;50.150;8.150;2022-11-14T05:01:21;24.80;;;13.63;;
22357;SDS011;11346;50.150;8.150;2022-11-14T05:03:48;20.90;;;12.70;;
22357;SDS011;11346;50.150;8.150;2022-11-14T05:06:15;22.97;;;11.93;;
22357;SDS011;11346;50.150;8.150;2022-11-14T05:08:42;20.60;;;10.37;;
22357;SDS011;11346;50.150;8.150;2022-11-14T05:11:12;22.47;;;12.13;;
22357;SDS011;11346;50.150;8.150;2022-11-14T05:13:40;16.20;;;9.17;;
22357;SDS011;11346;50.150;8.150;2022-11-14T05:16:07;22.57;;;12.40;;
22357;SDS011;11346;50.150;8.150;2022-11-14T05:18:34;20.17;;;10.20;;
22357;SDS011;11346;50.150;8.150;2022-11-14T05:21:01;22.07;;;11.63;;
22357;SDS011;11346;50.150;8.150;2022-11-14T05:23:29;23.07;;;12.47;;
22357;SDS011;11346;50.150;8.150;2022-11-14T05:25:59;23.33;;;12.77;;
22357;SDS011;11346;50.150;8.150;2022-11-14T05:28:26;24.47;;;12.97;;
22357;SDS011;11346;50.150;8.150;2022-11-14T05:31:00;14.60;;;8.80;;
22357;SDS011;11346;50.150;8.150;2022-11-14T05:33:27;24.00;;;12.93;;
22357;SDS011;11346;50.150;8.150;2022-11-14T05:35:54;21.23;;;11.43;;
22357;SDS011;11346;50.150;8.150;2022-11-14T05:38:21;25.20;;;13.80;;
22357;SDS011;11346;50.150;8.150;2022-11-14T05:40:48;24.23;;;12.70;;
22357;SDS011;11346;50.150;8.150;2022-11-14T05:43:16;24.73;;;11.97;;
22357;SDS011;11346;50.150;8.150;2022-11-14T05:45:43;25.00;;;13.40;;
22357;SDS011;11346;50.150;8.150;2022-11-14T05:48:12;29.03;;;14.67;;
22357;SDS011;11346;50.150;8.150;2022-11-14T05:50:39;26.10;;;14.93;;
22357;SDS011;11346;50.150;8.150;2022-11-14T05:53:06;21.07;;;10.87;;
22357;SDS011;11346;50.150;8.150;2022-11-14T05:55:33;13.00;;;6.87;;
22357;SDS011;11346;50.150;8.150;2022-11-14T05:58:00;24.03;;;13.10;;
22357;SDS011;11346;50.150;8.150;2022-11-14T06:00:27;23.20;;;13.77;;
22357;SDS011;11346;50.150;8.150;2022-11-14T06:02:54;24.87;;;14.70;;
22357;SDS011;11346;50.150;8.150;2022-11-14T06:05:23;22.60;;;13.53;;
22357;SDS011;11346;50.150;8.150;2022-11-14T06:07:53;25.97;;;14.47;;
22357;SDS011;11346;50.150;8.150;2022-11-14T06:10:20;24.07;;;14.07;;
22357;SDS011;11346;50.150;8.150;2022-11-14T06:12:47;25.73;;;14.13;;
22357;SDS011;11346;50.150;8.150;2022-11-14T06:15:14;24.43;;;11.73;;
22357;SDS011;11346;50.150;8.150;2022-11-14T06:17:42;23.80;;;13.13;;
22357;SDS011;11346;50.150;8.150;2022-11-14T06:20:10;28.97;;;14.53;;
22357;SDS011;11346;50.150;8.150;2022-11-14T06:22:39;24.90;;;14.37;;
22357;SDS011;11346;50.150;8.150;2022-11-14T06:25:06;28.67;;;15.50;;
22357;SDS011;11346;50.150;8.150;2022-11-14T06:27:34;21.77;;;11.47;;
22357;SDS011;11346;50.150;8.150;2022-11-14T06:30:01;32.03;;;15.53;;
22357;SDS011;11346;50.150;8.150;2022-11-14T06:32:28;35.17;;;17.17;;
22357;SDS011;11346;50.150;8.150;2022-11-14T06:34:55;29.13;;;14.77;;
22357;SDS011;11346;50.150;8.150;2022-11-14T06:37:22;28.37;;;14.40;;
22357;SDS011;11346;50.150;8.150;2022-11-14T06:39:50;33.03;;;16.23;;
22357;SDS011;11346;50.150;8.150;2022-11-14T06:42:17;50.00;;;20.87;;
22357;SDS011;11346;50.150;8.150;2022-11-14T06:44:44;52.13;;;21.60;;
22357;SDS011;11346;50.150;8.150;2022-11-14T06:47:11;62.60;;;23.53;;
22357;SDS011;11346;50.150;8.150;2022-11-14T06:49:38;60.37;;;24.17;;
22357;SDS011;11346;50.150;8.150;2022-11-14T06:52:05;42.83;;;17.23;;
22357;SDS011;11346;50.150;8.150;2022-11-14T06:54:32;34.03;;;15.43;;
22357;SDS011;11346;50.150;8.150;2022-11-14T06:57:00;41.03;;;17.10;;
22357;SDS011;11346;50.150;8.150;2022-11-14T06:59:27;33.23;;;15.33;;
22357;SDS011;11346;50.150;8.150;2022-11-14T07:01:55;38.70;;;15.57;;
22357;SDS011;11346;50.150;8.150;2022-11-14T07:04:22;36.60;;;18.23;;
22357;SDS011;11346;50.150;8.150;2022-11-14T07:06:49;43.37;;;18.57;;
22357;SDS011;11346;50.150;8.150;2022-11-14T07:09:16;36.40;;;15.60;;
22357;SDS011;11346;50.150;8.150;2022-11-14T07:11:43;30.87;;;15.17;;
22357;SDS011;11346;50.150;8.150;2022-11-14T07:14:13;27.50;;;12.80;;
22357;SDS011;11346;50.150;8.150;2022-11-14T07:16:40;32.20;;;15.40;;
22357;SDS011;11346;50.150;8.150;2022-11-14T07:19:07;30.43;;;15.30;;
22357;SDS011;11346;50.150;8.150;2022-11-14T07:21:34;33.43;;;15.83;;
22357;SDS011;11346;50.150;8.150;2022-11-14T07:24:01;30.77;;;14.73;;
22357;SDS011;11346;50.150;8.150;2022-11-14T07:26:29;34.10;;;16.30;;
22357;SDS011;11346;50.150;8.150;2022-11-14T07:28:56;32.53;;;15.07;;
22357;SDS011;11346;50.150;8.150;2022-11-14T07:31:25;55.93;;;16.20;;
22357;SDS011;11346;50.150;8.150;2022-11-14T07:33:52;37.77;;;16.70;;
22357;SDS011;11346;50.150;8.150;2022-11-14T07:36:20;72.97;;;15.80;;
22357;SDS011;11346;50.150;8.150;2022-11-14T07:38:47;33.33;;;16.30;;
22357;SDS011;11346;50.150;8.150;2022-11-14T07:41:14;42.07;;;16.57;;
22357;SDS011;11346;50.150;8.150;2022-11-14T07:43:42;37.47;;;16.63;;
22357;SDS011;11346;50.150;8.150;2022-11-14T07:46:10;62.43;;;16.53;;
22357;SDS011;11346;50.150;8.150;2022-11-14T07:48:38;95.07;;;16.00;;
22357;SDS011;11346;50.150;8.150;2022-11-14T07:51:06;79.97;;;12.23;;
22357;SDS011;11346;50.150;8.150;2022-11-14T07:53:33;70.23;;;16.90;;
22357;SDS011;11346;50.150;8.150;2022-11-14T07:56:01;56.27;;;18.13;;
22357;SDS011;11346;50.150;8.150;2022-11-14T07:58:28;52.93;;;17.80;;
22357;SDS011;11346;50.150;8.150;2022-11-14T08:00:55;40.80;;;9.03;;
22357;SDS011;11346;50.150;8.150;2022-11-14T08:03:22;69.80;;;16.43;;
22357;SDS011;11346;50.150;8.150;2022-11-14T08:05:50;58.20;;;12.70;;
22357;SDS011;11346;50.150;8.150;2022-11-14T08:08:17;47.30;;;15.93;;
22357;SDS011;11346;50.150;8.150;2022-11-14T08:10:44;49.70;;;17.27;;
22357;SDS011;11346;50.150;8.150;2022-11-14T08:13:11;42.17;;;18.30;;
22357;SDS011;11346;50.150;8.150;2022-11-14T08:15:38;44.23;;;18.27;;
22357;SDS011;11346;50.150;8.150;2022-11-14T08:18:06;43.57;;;15.73;;
22357;SDS011;11346;50.150;8.150;2022-11-14T08:20:33;36.23;;;16.13;;
22357;SDS011;11346;50.150;8.150;2022-11-14T08:23:02;39.23;;;17.33;;
22357;SDS011;11346;50.150;8.150;2022-11-14T08:25:29;43.33;;;15.67;;
22357;SDS011;11346;50.150;8.150;2022-11-14T08:27:56;40.33;;;17.80;;
22357;SDS011;11346;50.150;8.150;2022-11-14T08:30:23;34.07;;;15.93;;
22357;SDS011;11346;50.150;8.150;2022-11-14T08:32:50;43.77;;;18.57;;
22357;SDS011;11346;50.150;8.150;2022-11-14T08:35:18;41.80;;;17.40;;
22357;SDS011;11346;50.150;8.150;2022-11-14T08:37:45;40.83;;;18.10;;
22357;SDS011;11346;50.150;8.150;2022-11-14T08:40:13;45.00;;;16.83;;
22357;SDS011;11346;50.150;8.150;2022-11-14T08:42:40;47.53;;;18.37;;
22357;SDS011;11346;50.150;8.150;2022-11-14T08:45:07;38.57;;;15.60;;
22357;SDS011;11346;50.150;8.150;2022-11-14T08:47:35;28.47;;;12.53;;
22357;SDS011;11346;50.150;8.150;2022-11-14T08:50:02;37.27;;;17.80;;
22357;SDS011;11346;50.150;8.150;2022-11-14T08:52:29;60.57;;;19.03;;
22357;SDS011;11346;50.150;8.150;2022-11-14T08:54:56;41.93;;;19.50;;
22357;SDS011;11346;50.150;8.150;2022-11-14T08:57:24;42.67;;;19.33;;
22357;SDS011;11346;50.150;8.150;2022-11-14T08:59:51;45.97;;;19.63;;
22357;SDS011;11346;50.150;8.150;2022-11-14T09:02:19;41.27;;;19.00;;
22357;SDS011;11346;50.150;8.150;2022-11-14T09:04:46;43.70;;;18.60;;
22357;SDS011;11346;50.150;8.150;2022-11-14T09:07:13;45.10;;;18.27;;
22357;SDS011;11346;50.150;8.150;2022-11-14T09:09:40;41.57;;;14.77;;
22357;SDS011;11346;50.150;8.150;2022-11-14T09:12:07;39.90;;;16.47;;
22357;SDS011;11346;50.150;8.150;2022-11-14T09:14:36;41.27;;;18.23;;
22357;SDS011;11346;50.150;8.150;2022-11-14T09:17:03;40.37;;;18.13;;
22357;SDS011;11346;50.150;8.150;2022-11-14T09:19:30;35.87;;;16.57;;
22357;SDS011;11346;50.150;8.150;2022-11-14T09:21:57;44.57;;;16.90;;
22357;SDS011;11346;50.150;8.150;2022-11-14T09:24:24;16.63;;;7.57;;
22357;SDS011;11346;50.150;8.150;2022-11-14T09:26:51;44.37;;;17.27;;
22357;SDS011;11346;50.150;8.150;2022-11-14T09:29:18;37.87;;;15.97;;
22357;SDS011;11346;50.150;8.150;2022-11-14T09:31:47;29.07;;;13.63;;
22357;SDS011;11346;50.150;8.150;2022-11-14T09:34:14;29.63;;;11.23;;
22357;SDS011;11346;50.150;8.150;2022-11-14T09:36:41;48.30;;;17.67;;
22357;SDS011;11346;50.150;8.150;2022-11-14T09:39:08;38.27;;;9.37;;
22357;SDS011;11346;50.150;8.150;2022-11-14T09:41:39;48.33;;;14.97;;
22357;SDS011;11346;50.150;8.150;2022-11-14T09:44:18;19.77;;;7.47;;
22357;SDS011;11346;50.150;8.150;2022-11-14T09:46:49;65.33;;;12.57;;
22357;SDS011;11346;50.150;8.150;2022-11-14T09:49:21;50.10;;;11.80;;
22357;SDS011;11346;50.150;8.150;2022-11-14T09:51:52;37.30;;;8.93;;
22357;SDS011;11346;50.150;8.150;2022-11-14T09:54:22;48.87;;;17.87;;
22357;SDS011;11346;50.150;8.150;2022-11-14T09:56:49;85.20;;;15.30;;
22357;SDS011;11346;50.150;8.150;2022-11-14T09:59:17;98.50;;;15.07;;
22357;SDS011;11346;50.150;8.150;2022-11-14T10:01:45;54.00;;;15.53;;
22357;SDS011;11346;50.150;8.150;2022-11-14T10:04:18;43.50;;;16.00;;
22357;SDS011;11346;50.150;8.150;2022-11-14T10:06:50;62.93;;;16.27;;
22357;SDS011;11346;50.150;8.150;2022-11-14T10:09:24;48.50;;;15.97;;
22357;SDS011;11346;50.150;8.150;2022-11-14T10:11:54;32.87;;;15.60;;
22357;SDS011;11346;50.150;8.150;2022-11-14T10:14:30;37.10;;;17.17;;
22357;SDS011;11346;50.150;8.150;2022-11-14T10:17:08;25.73;;;11.13;;
22357;SDS011;11346;50.150;8.150;2022-11-14T10:19:43;36.00;;;16.20;;
22357;SDS011;11346;50.150;8.150;2022-11-14T10:22:15;26.83;;;12.63;;
22357;SDS011;11346;50.150;8.150;2022-11-14T10:24:46;24.00;;;11.10;;
22357;SDS011;11346;50.150;8.150;2022-11-14T10:27:15;27.83;;;12.00;;
22357;SDS011;11346;50.150;8.150;2022-11-14T10:29:49;28.40;;;13.53;;
22357;SDS011;11346;50.150;8.150;2022-11-14T10:32:24;17.77;;;7.47;;
22357;SDS011;11346;50.150;8.150;2022-11-14T10:34:55;32.27;;;14.83;;
22357;SDS011;11346;50.150;8.150;2022-11-14T10:37:25;24.17;;;12.57;;
22357;SDS011;11346;50.150;8.150;2022-11-14T10:39:56;27.80;;;14.37;;
22357;SDS011;11346;50.150;8.150;2022-11-14T10:42:28;26.20;;;13.33;;
22357;SDS011;11346;50.150;8.150;2022-11-14T10:45:00;35.37;;;17.67;;
22357;SDS011;11346;50.150;8.150;2022-11-14T10:47:29;11.27;;;5.10;;
22357;SDS011;11346;50.150;8.150;2022-11-14T10:50:03;31.87;;;16.83;;
22357;SDS011;11346;50.150;8.150;2022-11-14T10:52:38;30.13;;;15.77;;
22357;SDS011;11346;50.150;8.150;2022-11-14T10:55:11;29.20;;;14.13;;
22357;SDS011;11346;50.150;8.150;2022-11-14T10:57:39;30.00;;;14.17;;
22357;SDS011;11346;50.150;8.150;2022-11-14T11:00:09;29.77;;;15.23;;
22357;SDS011;11346;50.150;8.150;2022-11-14T11:02:47;30.73;;;14.53;;
22357;SDS011;11346;50.150;8.150;2022-11-14T11:05:16;22.83;;;11.53;;
22357;SDS011;11346;50.150;8.150;2022-11-14T11:07:44;22.33;;;10.17;;
22357;SDS011;11346;50.150;8.150;2022-11-14T11:10:29;30.30;;;14.43;;
22357;SDS011;11346;50.150;8.150;2022-11-14T11:13:14;28.57;;;14.37;;
22357;SDS011;11346;50.150;8.150;2022-11-14T11:15:55;15.30;;;7.90;;
22357;SDS011;11346;50.150;8.150;2022-11-14T11:18:24;27.53;;;14.10;;
22357;SDS011;11346;50.150;8.150;2022-11-14T11:21:03;27.90;;;14.37;;
22357;SDS011;11346;50.150;8.150;2022-11-14T11:23:30;29.97;;;13.90;;
22357;SDS011;11346;50.150;8.150;2022-11-14T11:25:58;23.57;;;11.63;;
22357;SDS011;11346;50.150;8.150;2022-11-14T11:28:29;21.60;;;12.87;;
22357;SDS011;11346;50.150;8.150;2022-11-14T11:30:57;25.23;;;11.27;;
22357;SDS011;11346;50.150;8.150;2022-11-14T11:33:26;26.23;;;11.60;;
22357;SDS011;11346;50.150;8.150;2022-11-14T11:35:54;19.97;;;12.00;;
22357;SDS011;11346;50.150;8.150;2022-11-14T11:38:24;25.83;;;11.80;;
22357;SDS011;11346;50.150;8.150;2022-11-14T11:40:53;19.87;;;11.13;;
22357;SDS011;11346;50.150;8.150;2022-11-14T11:43:25;30.93;;;14.80;;
22357;SDS011;11346;50.150;8.150;2022-11-14T11:45:54;18.90;;;11.40;;
22357;SDS011;11346;50.150;8.150;2022-11-14T11:48:22;20.03;;;9.80;;
22357;SDS011;11346;50.150;8.150;2022-11-14T11:50:53;20.23;;;10.10;;
22357;SDS011;11346;50.150;8.150;2022-11-14T11:53:21;17.17;;;10.17;;
22357;SDS011;11346;50.150;8.150;2022-11-14T11:55:52;17.50;;;10.13;;
22357;SDS011;11346;50.150;8.150;2022-11-14T11:58:21;15.37;;;9.90;;
22357;SDS011;11346;50.150;8.150;2022-11-14T12:00:50;16.70;;;10.17;;
22357;SDS011;11346;50.150;8.150;2022-11-14T12:03:19;20.70;;;11.17;;
22357;SDS011;11346;50.150;8.150;2022-11-14T12:05:48;13.47;;;8.30;;
22357;SDS011;11346;50.150;8.150;2022-11-14T12:08:17;12.73;;;8.07;;
22357;SDS011;11346;50.150;8.150;2022-11-14T12:10:47;14.20;;;8.53;;
22357;SDS011;11346;50.150;8.150;2022-11-14T12:13:21;19.40;;;11.00;;
22357;SDS011;11346;50.150;8.150;2022-11-14T12:15:56;19.10;;;9.67;;
22357;SDS011;11346;50.150;8.150;2022-11-14T12:21:16;18.17;;;10.80;;
22357;SDS011;11346;50.150;8.150;2022-11-14T12:26:55;21.37;;;10.97;;
22357;SDS011;11346;50.150;8.150;2022-11-14T12:29:28;20.13;;;11.30;;
22357;SDS011;11346;50.150;8.150;2022-11-14T12:31:58;17.07;;;10.33;;
22357;SDS011;11346;50.150;8.150;2022-11-14T12:34:29;22.47;;;11.60;;
22357;SDS011;11346;50.150;8.150;2022-11-14T12:36:57;20.30;;;11.20;;
22357;SDS011;11346;50.150;8.150;2022-11-14T12:39:25;20.80;;;12.07;;
22357;SDS011;11346;50.150;8.150;2022-11-14T12:41:59;20.07;;;10.70;;
22357;SDS011;11346;50.150;8.150;2022-11-14T12:44:32;18.17;;;9.83;;
22357;SDS011;11346;50.150;8.150;2022-11-14T12:47:13;20.13;;;10.83;;
22357;SDS011;11346;50.150;8.150;2022-11-14T12:49:56;19.47;;;11.37;;
22357;SDS011;11346;50.150;8.150;2022-11-14T12:52:44;18.57;;;10.33;;
22357;SDS011;11346;50.150;8.150;2022-11-14T12:58:00;18.43;;;10.50;;
22357;SDS011;11346;50.150;8.150;2022-11-14T13:00:31;14.30;;;9.23;;
22357;SDS011;11346;50.150;8.150;2022-11-14T13:03:14;18.30;;;10.83;;
22357;SDS011;11346;50.150;8.150;2022-11-14T13:05:51;23.23;;;10.57;;
22357;SDS011;11346;50.150;8.150;2022-11-14T13:08:29;18.37;;;11.20;;
22357;SDS011;11346;50.150;8.150;2022-11-14T13:14:06;14.87;;;9.23;;
22357;SDS011;11346;50.150;8.150;2022-11-14T13:16:52;17.87;;;10.00;;
22357;SDS011;11346;50.150;8.150;2022-11-14T13:19:52;16.93;;;9.70;;
22357;SDS011;11346;50.150;8.150;2022-11-14T13:22:38;14.40;;;8.80;;
22357;SDS011;11346;50.150;8.150;2022-11-14T13:25:15;15.60;;;9.50;;
22357;SDS011;11346;50.150;8.150;2022-11-14T13:27:43;17.73;;;8.37;;
22357;SDS011;11346;50.150;8.150;2022-11-14T13:30:10;14.33;;;8.57;;
22357;SDS011;11346;50.150;8.150;2022-11-14T13:38:30;15.13;;;9.53;;
22357;SDS011;11346;50.150;8.150;2022-11-14T13:41:04;21.90;;;13.57;;
22357;SDS011;11346;50.150;8.150;2022-11-14T13:43:36;23.83;;;13.30;;
22357;SDS011;11346;50.150;8.150;2022-11-14T13:46:10;17.60;;;10.40;;
22357;SDS011;11346;50.150;8.150;2022-11-14T13:48:46;18.10;;;10.67;;
22357;SDS011;11346;50.150;8.150;2022-11-14T13:51:18;12.27;;;7.90;;
22357;SDS011;11346;50.150;8.150;2022-11-14T13:53:48;13.83;;;7.93;;
22357;SDS011;11346;50.150;8.150;2022-11-14T13:56:19;17.43;;;9.73;;
22357;SDS011;11346;50.150;8.150;2022-11-14T14:01:35;19.80;;;10.20;;
22357;SDS011;11346;50.150;8.150;2022-11-14T14:04:13;15.63;;;8.83;;
22357;SDS011;11346;50.150;8.150;2022-11-14T14:06:46;17.00;;;9.87;;
22357;SDS011;11346;50.150;8.150;2022-11-14T14:09:19;17.27;;;8.97;;
22357;SDS011;11346;50.150;8.150;2022-11-14T14:11:51;18.23;;;10.63;;
22357;SDS011;11346;50.150;8.150;2022-11-14T14:14:27;16.63;;;10.60;;
22357;SDS011;11346;50.150;8.150;2022-11-14T14:17:02;19.00;;;9.17;;
22357;SDS011;11346;50.150;8.150;2022-11-14T14:19:33;18.13;;;10.27;;
22357;SDS011;11346;50.150;8.150;2022-11-14T14:22:04;16.53;;;10.23;;
22357;SDS011;11346;50.150;8.150;2022-11-14T14:24:40;20.77;;;10.50;;
22357;SDS011;11346;50.150;8.150;2022-11-14T14:27:18;17.77;;;10.43;;
22357;SDS011;11346;50.150;8.150;2022-11-14T14:29:51;10.10;;;6.67;;
22357;SDS011;11346;50.150;8.150;2022-11-14T14:32:22;16.47;;;9.53;;
22357;SDS011;11346;50.150;8.150;2022-11-14T14:34:49;17.73;;;10.07;;
22357;SDS011;11346;50.150;8.150;2022-11-14T14:37:21;15.77;;;9.90;;
22357;SDS011;11346;50.150;8.150;2022-11-14T14:39:57;17.53;;;9.87;;
22357;SDS011;11346;50.150;8.150;2022-11-14T14:42:24;20.07;;;11.17;;
22357;SDS011;11346;50.150;8.150;2022-11-14T14:44:52;20.87;;;11.67;;
22357;SDS011;11346;50.150;8.150;2022-11-14T14:47:26;18.70;;;9.23;;
22357;SDS011;11346;50.150;8.150;2022-11-14T14:49:56;17.00;;;9.87;;
22357;SDS011;11346;50.150;8.150;2022-11-14T14:52:27;21.97;;;11.20;;
22357;SDS011;11346;50.150;8.150;2022-11-14T14:54:54;18.17;;;10.10;;
22357;SDS011;11346;50.150;8.150;2022-11-14T14:57:23;22.77;;;10.57;;
22357;SDS011;11346;50.150;8.150;2022-11-14T14:59:57;15.50;;;9.40;;